Time;durP1;ratioP1;P1;durP2;ratioP2;P2;SDS_P1;SDS_P2;PMS_P1;PMS_P2;Temp;Humidity;BMP_temperature;BMP_pressure;BME280_temperature;BME280_humidity;BME280_pressure;Samples;Min_cycle;Max_cycle;Signal;HPM_P1;HPM_P2
2022/03/19 00:01:54;;;;;;;57.22;38.63;;;;;;;5.93;66.99;98794.56;4803822;29;20065;-86
2022/03/19 00:04:36;;;;;;;56.13;38.92;;;;;;;5.91;66.79;98790.41;4804233;29;20078;-85
2022/03/19 00:07:17;;;;;;;57.75;36.30;;;;;;;5.88;67.28;98798.34;4802430;29;20070;-82
2022/03/19 00:15:38;;;;;;;55.20;37.60;;;;;;;5.84;66.79;98789.13;4803180;29;20062;-84
2022/03/19 00:18:27;;;;;;;53.65;37.42;;;;;;;5.82;66.49;98791.81;4803472;29;20059;-85
2022/03/19 00:21:00;;;;;;;56.33;37.35;;;;;;;5.82;66.52;98785.81;4822787;23;20082;-79
2022/03/19 00:23:27;;;;;;;58.17;36.85;;;;;;;5.78;66.51;98782.59;4805341;29;20427;-78
2022/03/19 00:25:55;;;;;;;54.35;38.22;;;;;;;5.77;66.78;98791.25;4805078;29;20446;-79
2022/03/19 00:28:24;;;;;;;56.35;36.92;;;;;;;5.79;66.66;98786.81;4805601;29;20047;-79
2022/03/19 00:30:56;;;;;;;55.58;35.67;;;;;;;5.81;66.30;98778.97;4805371;29;20115;-79
2022/03/19 00:33:24;;;;;;;56.92;36.25;;;;;;;5.82;66.31;98775.47;4805288;29;20558;-78
2022/03/19 00:35:52;;;;;;;58.40;38.83;;;;;;;5.84;66.11;98783.94;4804478;29;20054;-78
2022/03/19 00:38:20;;;;;;;53.70;34.60;;;;;;;5.84;66.13;98791.69;4805200;29;20054;-79
2022/03/19 00:40:49;;;;;;;57.72;37.45;;;;;;;5.83;66.25;98777.09;4805037;29;20059;-79
2022/03/19 00:43:19;;;;;;;57.08;37.38;;;;;;;5.81;66.05;98772.00;4805360;29;20058;-79
2022/03/19 00:45:48;;;;;;;58.90;36.85;;;;;;;5.81;65.94;98773.78;4804435;29;20055;-78
2022/03/19 00:48:17;;;;;;;58.10;37.97;;;;;;;5.80;66.14;98765.19;4805074;29;20067;-78
2022/03/19 00:50:44;;;;;;;52.22;35.78;;;;;;;5.82;65.79;98765.09;4805107;29;20119;-79
2022/03/19 00:53:12;;;;;;;51.83;35.72;;;;;;;5.81;66.04;98769.44;4806188;29;20059;-79
2022/03/19 00:55:40;;;;;;;52.30;35.95;;;;;;;5.81;65.67;98782.38;4805846;29;20062;-79
2022/03/19 00:58:07;;;;;;;53.22;35.45;;;;;;;5.80;66.00;98782.50;4805224;29;20070;-79
2022/03/19 01:00:34;;;;;;;55.10;36.72;;;;;;;5.76;65.80;98772.31;4805287;29;20085;-78
2022/03/19 01:03:03;;;;;;;56.35;37.20;;;;;;;5.74;65.68;98765.56;4805137;29;20055;-79
2022/03/19 01:05:31;;;;;;;51.05;34.90;;;;;;;5.72;65.92;98760.47;4804809;29;20432;-78
2022/03/19 01:07:59;;;;;;;55.05;35.67;;;;;;;5.73;65.55;98762.16;4804494;29;20078;-78
2022/03/19 01:10:28;;;;;;;52.63;35.03;;;;;;;5.73;65.70;98750.97;4805511;29;20062;-79
2022/03/19 01:12:57;;;;;;;54.33;35.90;;;;;;;5.71;65.49;98751.06;4805770;29;20514;-78
2022/03/19 01:15:25;;;;;;;52.25;35.42;;;;;;;5.72;65.41;98750.13;4805425;29;20055;-79
2022/03/19 01:17:53;;;;;;;48.05;33.28;;;;;;;5.72;65.17;98750.13;4807616;29;20089;-80
2022/03/19 01:20:22;;;;;;;53.28;34.65;;;;;;;5.69;65.27;98742.56;4808247;29;20129;-78
2022/03/19 01:22:50;;;;;;;54.80;37.17;;;;;;;5.65;64.96;98746.28;4808572;29;20407;-79
2022/03/19 01:25:20;;;;;;;51.58;35.00;;;;;;;5.63;64.99;98736.94;4813933;29;20430;-79
2022/03/19 01:27:49;;;;;;;53.60;35.17;;;;;;;5.61;65.32;98742.22;4824035;29;20050;-78
2022/03/19 01:30:19;;;;;;;53.97;35.10;;;;;;;5.64;65.02;98752.41;4817322;29;20054;-79
2022/03/19 01:32:47;;;;;;;52.88;34.80;;;;;;;5.68;65.09;98743.47;4808860;29;20058;-79
2022/03/19 01:35:16;;;;;;;51.78;34.33;;;;;;;5.69;65.14;98734.81;4817539;29;20062;-80
2022/03/19 01:37:46;;;;;;;50.20;33.42;;;;;;;5.69;64.69;98734.81;4815927;29;20059;-80
2022/03/19 01:40:15;;;;;;;51.63;34.72;;;;;;;5.71;65.09;98727.75;4808365;29;20065;-79
2022/03/19 01:42:46;;;;;;;49.25;34.13;;;;;;;5.70;64.94;98741.63;4808680;29;20068;-79
2022/03/19 01:45:15;;;;;;;52.45;33.40;;;;;;;5.70;64.46;98735.63;4807785;29;20055;-79
2022/03/19 01:47:42;;;;;;;48.30;32.20;;;;;;;5.68;64.38;98732.31;4807397;29;20059;-79
2022/03/19 01:50:12;;;;;;;51.92;33.92;;;;;;;5.67;64.17;98726.28;4807907;29;20047;-78
2022/03/19 01:52:40;;;;;;;50.35;33.42;;;;;;;5.66;64.10;98734.16;4807757;29;20502;-78
2022/03/19 01:55:11;;;;;;;52.75;35.55;;;;;;;5.65;64.23;98717.78;4807773;29;20066;-79
2022/03/19 01:57:42;;;;;;;50.30;33.42;;;;;;;5.64;64.09;98726.50;4806685;29;20055;-78
2022/03/19 02:00:12;;;;;;;47.53;32.63;;;;;;;5.66;63.90;98721.22;4807738;29;20066;-78
2022/03/19 02:02:40;;;;;;;52.03;34.35;;;;;;;5.63;63.52;98719.66;4807924;29;20066;-78
2022/03/19 02:05:12;;;;;;;50.80;33.10;;;;;;;5.62;63.95;98715.41;4807626;29;20067;-78
2022/03/19 02:07:40;;;;;;;50.50;33.03;;;;;;;5.63;63.77;98718.81;4806923;29;20145;-78
2022/03/19 02:10:10;;;;;;;50.58;32.78;;;;;;;5.62;63.42;98718.00;4807188;29;20066;-78
2022/03/19 02:12:37;;;;;;;49.20;33.35;;;;;;;5.58;63.81;98726.91;4807698;29;20051;-79
2022/03/19 02:15:06;;;;;;;48.88;33.80;;;;;;;5.58;63.62;98726.91;4807180;29;20511;-79
2022/03/19 02:17:34;;;;;;;48.30;32.53;;;;;;;5.60;63.46;98730.22;4806845;29;20078;-78
2022/03/19 02:20:03;;;;;;;48.90;32.75;;;;;;;5.62;63.44;98723.19;4807037;29;20069;-79
2022/03/19 02:22:30;;;;;;;52.15;34.80;;;;;;;5.64;63.53;98725.66;4807365;29;20082;-79
2022/03/19 02:27:46;;;;;;;47.13;32.28;;;;;;;5.61;63.71;98711.16;4805556;29;20134;-79
2022/03/19 02:30:16;;;;;;;48.45;31.67;;;;;;;5.63;62.94;98711.06;4807109;29;20062;-79
2022/03/19 02:32:49;;;;;;;46.65;31.80;;;;;;;5.61;63.18;98716.31;4807273;29;20058;-79
2022/03/19 02:35:17;;;;;;;46.08;32.17;;;;;;;5.62;63.01;98718.00;4807093;29;20063;-79
2022/03/19 02:37:46;;;;;;;47.28;31.77;;;;;;;5.63;62.71;98716.25;4802204;29;20107;-78
2022/03/19 02:40:16;;;;;;;45.97;32.65;;;;;;;5.62;62.82;98723.19;4807058;29;20426;-78
2022/03/19 02:42:44;;;;;;;49.28;31.65;;;;;;;5.60;62.42;98714.69;4807033;29;20055;-79
2022/03/19 02:45:11;;;;;;;49.30;32.47;;;;;;;5.58;62.36;98716.53;4806967;29;20057;-79
2022/03/19 02:47:56;;;;;;;47.97;31.83;;;;;;;5.59;62.80;98720.78;4805911;29;20047;-78
2022/03/19 02:50:27;;;;;;;46.00;31.13;;;;;;;5.58;62.25;98708.78;4807130;29;20066;-79
2022/03/19 02:52:55;;;;;;;45.92;30.98;;;;;;;5.57;61.94;98709.69;4806715;29;20514;-79
2022/03/19 02:55:25;;;;;;;44.95;31.15;;;;;;;5.55;61.58;98706.34;4806722;29;20050;-80
2022/03/19 02:57:52;;;;;;;46.75;30.90;;;;;;;5.55;61.55;98698.59;4797942;29;20062;-78
2022/03/19 03:00:21;;;;;;;49.50;32.08;;;;;;;5.55;61.66;98696.00;4806177;29;20061;-79
2022/03/19 03:02:48;;;;;;;48.20;31.58;;;;;;;5.57;61.77;98694.16;4806891;29;20141;-79
2022/03/19 03:05:16;;;;;;;48.25;30.70;;;;;;;5.60;61.56;98704.31;4794272;29;20058;-79
2022/03/19 03:07:44;;;;;;;43.85;30.52;;;;;;;5.58;60.85;98701.00;4805660;29;20065;-78
2022/03/19 03:10:15;;;;;;;46.88;30.55;;;;;;;5.56;61.05;98689.91;4805563;29;20065;-79
2022/03/19 03:12:44;;;;;;;45.72;30.88;;;;;;;5.57;60.72;98701.91;4806305;29;20058;-78
2022/03/19 03:15:12;;;;;;;42.33;29.23;;;;;;;5.56;60.58;98695.91;4806012;29;20062;-77
2022/03/19 03:17:40;;;;;;;48.80;30.30;;;;;;;5.58;60.30;98695.81;4805136;29;20054;-78
2022/03/19 03:20:09;;;;;;;46.70;29.60;;;;;;;5.57;60.03;98694.16;4805646;29;20066;-77
2022/03/19 03:22:39;;;;;;;42.53;28.90;;;;;;;5.56;60.50;98692.50;4806162;29;20068;-79
2022/03/19 03:25:08;;;;;;;40.95;28.55;;;;;;;5.58;60.71;98695.81;4798714;29;20057;-78
2022/03/19 03:27:35;;;;;;;43.75;28.85;;;;;;;5.61;60.37;98690.44;4804466;29;20055;-78
2022/03/19 03:30:05;;;;;;;46.17;30.30;;;;;;;5.62;60.36;98691.25;4804997;29;20062;-78
2022/03/19 03:32:32;;;;;;;41.60;27.80;;;;;;;5.65;60.42;98691.91;4804352;29;20441;-76
2022/03/19 03:35:00;;;;;;;42.42;28.90;;;;;;;5.71;61.79;98691.50;4805550;29;20050;-78
2022/03/19 03:37:27;;;;;;;39.78;27.45;;;;;;;5.75;60.49;98695.56;4794360;29;20051;-79
2022/03/19 03:39:55;;;;;;;45.72;29.70;;;;;;;5.76;60.01;98694.63;4787456;29;20059;-79
2022/03/19 03:42:23;;;;;;;42.78;28.38;;;;;;;5.75;59.68;98695.56;4789160;30;20051;-78
2022/03/19 03:44:54;;;;;;;44.35;28.77;;;;;;;5.73;59.12;98684.47;4788077;30;20063;-79
2022/03/19 03:47:23;;;;;;;45.03;28.00;;;;;;;5.72;59.82;98689.75;4788079;29;20404;-79
2022/03/19 03:49:52;;;;;;;45.20;29.05;;;;;;;5.72;58.96;98690.56;4787751;30;20055;-79
2022/03/19 03:52:20;;;;;;;43.00;30.02;;;;;;;5.70;59.29;98689.84;4787175;29;20059;-79
2022/03/19 03:54:47;;;;;;;41.90;28.48;;;;;;;5.68;59.13;98681.34;4787821;29;20055;-79
2022/03/19 03:57:15;;;;;;;44.60;28.55;;;;;;;5.68;59.19;98680.50;4798111;29;20050;-77
2022/03/19 03:59:43;;;;;;;43.78;28.92;;;;;;;5.69;58.83;98680.41;4805654;29;20065;-79
2022/03/19 04:02:11;;;;;;;43.30;28.85;;;;;;;5.70;59.29;98676.88;4794965;29;20070;-79
2022/03/19 04:04:41;;;;;;;41.10;28.67;;;;;;;5.77;61.88;98677.31;4787477;30;20055;-78
2022/03/19 04:07:08;;;;;;;43.10;29.08;;;;;;;5.84;62.06;98669.97;4800969;29;20051;-79
2022/03/19 04:09:36;;;;;;;43.75;28.55;;;;;;;5.89;61.50;98670.53;4820840;29;20072;-77
2022/03/19 04:12:04;;;;;;;44.67;29.40;;;;;;;5.97;61.19;98678.66;4808738;29;20066;-77
2022/03/19 04:14:32;;;;;;;40.05;28.30;;;;;;;5.93;59.22;98671.97;4788604;29;20070;-78
2022/03/19 04:16:59;;;;;;;40.70;28.73;;;;;;;5.88;58.64;98676.63;4798047;29;20070;-79
2022/03/19 04:19:27;;;;;;;41.90;28.65;;;;;;;5.84;58.27;98676.00;4819310;29;20061;-78
2022/03/19 04:21:56;;;;;;;42.03;27.75;;;;;;;5.84;59.78;98686.38;4810696;29;20054;-78
2022/03/19 04:24:25;;;;;;;42.53;28.80;;;;;;;5.88;60.22;98679.19;4806800;29;20062;-78
2022/03/19 04:26:53;;;;;;;41.28;28.42;;;;;;;5.91;58.81;98679.84;4794641;29;20063;-80
2022/03/19 04:29:20;;;;;;;40.42;26.48;;;;;;;5.87;58.25;98680.97;4787303;29;20055;-79
2022/03/19 04:31:48;;;;;;;42.70;26.95;;;;;;;5.82;58.69;98677.03;4795482;29;20069;-78
2022/03/19 04:34:15;;;;;;;48.35;30.80;;;;;;;5.78;59.07;98674.63;4805184;29;20055;-78
2022/03/19 04:36:43;;;;;;;43.50;30.33;;;;;;;5.80;60.53;98668.53;4795529;29;20055;-79
2022/03/19 04:39:12;;;;;;;47.88;32.25;;;;;;;5.82;62.23;98679.63;4790735;29;20047;-78
2022/03/19 04:41:41;;;;;;;48.90;33.10;;;;;;;5.84;61.53;98669.97;4801357;29;20510;-80
2022/03/19 04:44:09;;;;;;;49.03;32.50;;;;;;;5.83;60.96;98660.56;4796103;29;20074;-77
2022/03/19 04:46:37;;;;;;;50.00;33.38;;;;;;;5.80;60.99;98665.94;4790184;29;20055;-78
2022/03/19 04:49:05;;;;;;;49.03;30.88;;;;;;;5.74;61.85;98660.22;4804220;29;20058;-79
2022/03/19 04:51:36;;;;;;;50.63;31.42;;;;;;;5.77;62.53;98659.19;4807460;29;20055;-79
2022/03/19 04:54:04;;;;;;;47.15;32.30;;;;;;;5.81;62.77;98660.66;4808790;29;20442;-79
2022/03/19 04:56:33;;;;;;;46.50;32.55;;;;;;;5.81;61.70;98659.81;4817935;24;20062;-79
2022/03/19 04:59:03;;;;;;;47.10;32.80;;;;;;;5.75;62.20;98659.31;4805133;29;20059;-78
2022/03/19 05:01:32;;;;;;;46.67;31.65;;;;;;;5.74;62.80;98660.22;4799969;29;20611;-79
2022/03/19 05:04:01;;;;;;;51.47;33.83;;;;;;;5.76;64.49;98658.38;4805833;29;20054;-80
2022/03/19 05:13:32;;;;;;;52.78;33.92;;;;;;;5.82;65.35;98661.50;4827685;29;20142;-77
2022/03/19 05:16:00;;;;;;;52.63;36.70;;;;;;;5.81;66.03;98663.25;4818868;29;20066;-79
2022/03/19 05:18:28;;;;;;;50.30;34.63;;;;;;;5.82;66.48;98648.56;4817509;29;20050;-77
2022/03/19 05:20:56;;;;;;;47.92;33.13;;;;;;;5.83;65.24;98652.78;4829525;29;20057;-80
2022/03/19 05:23:24;;;;;;;47.60;32.60;;;;;;;5.84;65.74;98654.44;4837779;29;20039;-81
2022/03/19 05:25:52;;;;;;;49.78;33.25;;;;;;;5.85;65.17;98643.97;4837491;29;20068;-81
2022/03/19 05:28:20;;;;;;;44.33;32.08;;;;;;;5.86;63.97;98650.84;4834442;29;20058;-81
2022/03/19 05:30:58;;;;;;;;;;;;;;;5.88;65.40;98656.75;4837055;29;20065;-81
2022/03/19 05:36:13;;;;;;;45.20;32.30;;;;;;;5.88;65.01;98658.47;4835883;29;20053;-81
2022/03/19 05:38:41;;;;;;;54.50;33.40;;;;;;;5.88;65.74;98655.91;4836889;29;20056;-81
2022/03/19 05:41:09;;;;;;;45.15;30.55;;;;;;;5.86;63.00;98653.44;4834529;29;20046;-81
2022/03/19 05:43:37;;;;;;;49.60;31.63;;;;;;;5.81;62.20;98657.25;4837688;29;20054;-81
2022/03/19 05:46:07;;;;;;;49.67;31.90;;;;;;;5.75;62.71;98659.31;4837024;29;20429;-81
2022/03/19 05:48:34;;;;;;;49.55;32.13;;;;;;;5.73;64.08;98661.16;4836372;29;20054;-81
2022/03/19 05:51:02;;;;;;;50.72;32.00;;;;;;;5.75;64.48;98651.53;4836517;29;20055;-81
2022/03/19 05:53:36;;;;;;;50.78;32.40;;;;;;;5.77;65.31;98654.88;4836014;29;20058;-81
2022/03/19 05:56:04;;;;;;;51.33;33.05;;;;;;;5.80;63.51;98647.81;4836835;29;20054;-81
2022/03/19 05:58:31;;;;;;;51.95;33.42;;;;;;;5.77;62.39;98654.00;4837950;29;20050;-81
2022/03/19 06:00:59;;;;;;;48.17;33.47;;;;;;;5.73;63.28;98655.16;4831484;29;20046;-81
2022/03/19 06:03:28;;;;;;;51.03;32.58;;;;;;;5.74;63.92;98656.81;4836980;29;20058;-81
2022/03/19 06:05:56;;;;;;;54.67;34.47;;;;;;;5.78;65.16;98653.09;4836318;29;20078;-81
2022/03/19 06:08:24;;;;;;;41.95;29.38;;;;;;;5.83;64.66;98660.56;4837868;29;20060;-81
2022/03/19 06:10:51;;;;;;;50.65;31.45;;;;;;;5.78;62.88;98648.75;4837373;29;20050;-81
2022/03/19 06:13:19;;;;;;;47.03;30.40;;;;;;;5.72;61.60;98650.91;4838924;29;20064;-81
2022/03/19 06:15:47;;;;;;;45.20;29.13;;;;;;;5.62;60.77;98649.84;4837837;29;20051;-79
2022/03/19 06:18:14;;;;;;;49.15;30.25;;;;;;;5.51;60.79;98651.38;4836439;29;20056;-81
2022/03/19 06:20:44;;;;;;;45.50;28.38;;;;;;;5.47;60.46;98651.69;4875551;23;20058;-81
2022/03/19 06:23:12;;;;;;;42.15;26.58;;;;;;;5.45;60.41;98648.38;4833168;29;20077;-81
2022/03/19 06:25:40;;;;;;;43.90;28.25;;;;;;;5.44;59.64;98649.28;4828871;29;20054;-81
2022/03/19 06:28:08;;;;;;;41.33;26.70;;;;;;;5.42;59.69;98648.53;4826617;29;20078;-80
2022/03/19 06:30:37;;;;;;;42.22;27.83;;;;;;;5.40;59.59;98650.41;4827447;29;20149;-80
2022/03/19 06:33:06;;;;;;;40.63;27.98;;;;;;;5.37;59.06;98649.66;4827948;29;20062;-81
2022/03/19 06:38:26;;;;;;;41.42;26.88;;;;;;;5.42;58.72;98645.94;4826910;29;20060;-80
2022/03/19 06:40:54;;;;;;;43.30;27.15;;;;;;;5.43;58.92;98647.63;4826829;29;20054;-81
2022/03/19 06:43:22;;;;;;;43.42;27.77;;;;;;;5.44;58.58;98646.69;4826667;29;20107;-81
2022/03/19 06:45:51;;;;;;;41.35;28.63;;;;;;;5.47;58.58;98646.50;4826698;29;20055;-82
2022/03/19 06:48:20;;;;;;;40.17;27.05;;;;;;;5.51;58.52;98641.03;4827118;29;20054;-80
2022/03/19 06:50:50;;;;;;;44.50;28.77;;;;;;;5.54;58.86;98646.00;4826847;29;20059;-80
2022/03/19 06:53:18;;;;;;;41.17;27.73;;;;;;;5.64;58.95;98648.81;4826628;29;20061;-81
2022/03/19 06:55:48;;;;;;;44.22;28.05;;;;;;;5.72;57.79;98638.78;4826632;29;20137;-81
2022/03/19 06:58:17;;;;;;;45.85;30.08;;;;;;;5.81;57.76;98652.06;4826119;29;20061;-81
2022/03/19 07:00:46;;;;;;;44.30;27.15;;;;;;;5.89;57.36;98642.03;4826428;29;20138;-81
2022/03/19 07:03:15;;;;;;;38.58;27.80;;;;;;;6.01;59.27;98643.81;4826531;29;20082;-80
2022/03/19 07:05:44;;;;;;;45.08;27.55;;;;;;;6.14;57.37;98642.09;4826432;29;20058;-80
2022/03/19 07:08:13;;;;;;;42.47;27.55;;;;;;;6.22;56.86;98645.91;4826291;29;20084;-81
2022/03/19 07:10:42;;;;;;;37.45;26.00;;;;;;;6.33;56.64;98638.22;4826324;29;20570;-81
2022/03/19 07:13:13;;;;;;;35.25;24.95;;;;;;;6.44;55.87;98638.31;4825999;29;20086;-80
2022/03/19 07:15:43;;;;;;;36.75;26.00;;;;;;;6.58;55.67;98640.81;4826236;29;20150;-81
2022/03/19 07:18:12;;;;;;;39.50;25.13;;;;;;;6.71;54.65;98632.16;4825780;29;20046;-81
2022/03/19 07:20:44;;;;;;;37.42;25.08;;;;;;;6.83;53.78;98633.91;4825617;29;20068;-81
2022/03/19 07:23:13;;;;;;;33.65;23.35;;;;;;;6.95;53.59;98637.38;4825995;29;20054;-81
2022/03/19 07:25:44;;;;;;;35.35;24.85;;;;;;;7.07;53.12;98635.69;4825584;29;20066;-81
2022/03/19 07:28:17;;;;;;;36.20;25.48;;;;;;;7.17;51.90;98621.94;4825764;29;20061;-81
2022/03/19 07:30:52;;;;;;;47.47;29.20;;;;;;;7.30;52.57;98631.44;4825599;29;20081;-81
2022/03/19 07:33:22;;;;;;;38.55;25.08;;;;;;;7.43;51.84;98625.25;4824377;29;20055;-80
2022/03/19 07:35:53;;;;;;;37.80;25.80;;;;;;;7.56;51.69;98626.94;4825806;29;20069;-81
2022/03/19 07:38:23;;;;;;;34.28;24.13;;;;;;;7.68;51.06;98626.03;4825898;29;20061;-81
2022/03/19 07:43:46;;;;;;;38.67;26.17;;;;;;;7.92;50.14;98622.56;4825209;29;20141;-81
2022/03/19 07:46:25;;;;;;;36.38;24.73;;;;;;;8.04;49.99;98627.66;4824547;29;20058;-81
2022/03/19 07:52:05;;;;;;;33.35;24.55;;;;;;;8.42;48.41;98621.34;4826223;29;20514;-81
2022/03/19 07:54:57;;;;;;;37.05;23.77;;;;;;;8.64;49.27;98615.28;4824267;29;20050;-81
2022/03/19 07:57:51;;;;;;;33.38;23.50;;;;;;;8.83;48.03;98614.69;4825183;29;20065;-81
2022/03/19 08:03:33;;;;;;;38.85;23.77;;;;;;;9.23;46.84;98608.91;4811812;29;20138;-81
2022/03/19 08:15:11;;;;;;;35.30;25.25;;;;;;;10.21;45.52;98613.00;4901186;23;20065;-80
2022/03/19 08:17:41;;;;;;;33.33;25.00;;;;;;;10.38;45.03;98623.81;4823003;29;20422;-80
2022/03/19 08:20:11;;;;;;;35.28;25.10;;;;;;;10.54;44.15;98613.72;4823264;29;20152;-80
2022/03/19 08:22:39;;;;;;;34.92;25.75;;;;;;;10.69;44.19;98607.19;4823322;29;20055;-80
2022/03/19 08:25:07;;;;;;;35.95;24.25;;;;;;;10.86;43.71;98608.28;4822878;29;20054;-81
2022/03/19 08:27:35;;;;;;;32.17;25.05;;;;;;;11.00;43.56;98604.50;4854180;23;20059;-81
2022/03/19 08:30:04;;;;;;;35.53;24.77;;;;;;;11.19;42.47;98597.63;4845282;29;20137;-80
2022/03/19 08:32:32;;;;;;;34.05;25.63;;;;;;;11.34;42.92;98596.25;4844945;29;20062;-80
2022/03/19 08:35:00;;;;;;;34.70;24.33;;;;;;;11.54;42.21;98592.69;4845555;29;20046;-79
2022/03/19 08:37:29;;;;;;;35.70;25.90;;;;;;;11.66;41.26;98595.97;4844796;29;20034;-80
2022/03/19 08:42:42;;;;;;;34.38;24.50;;;;;;;11.91;40.97;98589.34;4846334;29;20055;-82
2022/03/19 08:45:10;;;;;;;36.30;25.50;;;;;;;12.06;40.82;98586.28;4845677;29;20054;-81
2022/03/19 08:47:37;;;;;;;38.65;25.60;;;;;;;12.21;40.23;98579.63;4845599;29;20049;-81
2022/03/19 08:50:07;;;;;;;34.50;25.70;;;;;;;12.40;39.87;98583.13;4846367;29;20041;-81
2022/03/19 08:52:36;;;;;;;32.50;24.25;;;;;;;12.53;38.85;98579.22;4845872;29;20057;-82
2022/03/19 08:55:04;;;;;;;38.05;26.38;;;;;;;12.50;39.07;98578.69;4845949;29;20047;-81
2022/03/19 08:57:32;;;;;;;36.05;26.48;;;;;;;12.46;38.96;98564.22;4845450;29;20046;-81
2022/03/19 09:00:01;;;;;;;36.38;26.27;;;;;;;12.44;39.22;98561.78;4846047;29;20054;-83
2022/03/19 09:02:41;;;;;;;35.53;26.30;;;;;;;12.52;39.40;98561.84;4845115;29;20038;-82
2022/03/19 09:05:09;;;;;;;37.00;26.33;;;;;;;12.73;39.29;98551.13;4844772;29;20055;-82
2022/03/19 09:07:38;;;;;;;33.50;25.58;;;;;;;12.94;40.81;98550.03;4844644;29;20070;-82
2022/03/19 09:10:06;;;;;;;38.10;28.27;;;;;;;13.26;39.69;98554.75;4845737;29;20050;-81
2022/03/19 09:12:38;;;;;;;33.22;25.80;;;;;;;13.65;39.29;98551.00;4846252;29;20042;-81
2022/03/19 09:15:06;;;;;;;38.03;27.85;;;;;;;13.87;38.09;98553.09;4845521;29;20038;-83
2022/03/19 09:17:34;;;;;;;34.10;25.65;;;;;;;13.99;37.42;98548.41;4845699;29;20130;-81
2022/03/19 09:20:02;;;;;;;38.42;28.88;;;;;;;14.03;37.23;98541.88;4846208;29;20069;-81
2022/03/19 09:22:31;;;;;;;32.33;25.13;;;;;;;14.11;38.21;98533.22;4846600;29;20046;-81
2022/03/19 09:25:00;;;;;;;35.63;27.05;;;;;;;14.24;37.47;98544.13;4846483;29;20102;-81
2022/03/19 09:27:27;;;;;;;37.40;26.88;;;;;;;14.40;36.82;98533.69;4845767;29;20069;-82
2022/03/19 09:29:55;;;;;;;39.15;27.55;;;;;;;14.53;37.23;98522.72;4846766;29;20048;-82
2022/03/19 09:32:22;;;;;;;35.20;26.95;;;;;;;14.86;37.68;98514.13;4846725;29;20045;-82
2022/03/19 09:34:52;;;;;;;34.13;26.58;;;;;;;15.22;36.28;98515.50;4846391;29;20070;-81
2022/03/19 09:37:20;;;;;;;30.65;24.63;;;;;;;15.55;36.06;98497.06;4848068;29;20035;-81
2022/03/19 09:39:49;;;;;;;34.05;25.25;;;;;;;15.88;34.64;98507.53;4849991;29;20038;-81
2022/03/19 09:42:18;;;;;;;33.00;24.15;;;;;;;16.11;34.05;98496.28;4849771;29;20058;-81
2022/03/19 09:44:46;;;;;;;29.50;24.58;;;;;;;16.32;33.54;98511.50;4849829;29;20035;-81
2022/03/19 09:47:14;;;;;;;30.20;23.77;;;;;;;16.54;32.85;98497.56;4849865;29;20054;-81
2022/03/19 09:49:42;;;;;;;28.73;23.15;;;;;;;16.74;32.84;98481.31;4849931;29;20098;-82
2022/03/19 09:52:12;;;;;;;27.38;22.95;;;;;;;17.11;32.08;98493.75;4849580;29;20058;-82
2022/03/19 09:54:40;;;;;;;27.27;21.40;;;;;;;17.35;30.86;98478.72;4849197;29;20125;-82
2022/03/19 09:57:08;;;;;;;25.85;17.15;;;;;;;17.70;29.45;98474.59;4848887;29;20102;-82
2022/03/19 09:59:37;;;;;;;20.48;16.13;;;;;;;17.96;28.35;98454.88;4849583;29;20050;-81
2022/03/19 10:02:06;;;;;;;22.63;17.27;;;;;;;18.44;28.70;98455.25;4849657;29;20056;-81
2022/03/19 10:04:38;;;;;;;17.75;14.45;;;;;;;19.16;27.60;98446.41;4849572;29;20054;-82
2022/03/19 10:09:52;;;;;;;22.52;15.98;;;;;;;20.80;24.55;98440.50;4849292;29;20039;-81
2022/03/19 10:12:22;;;;;;;16.05;12.70;;;;;;;21.54;23.06;98439.47;4849298;29;20068;-81
2022/03/19 10:14:53;;;;;;;17.08;13.77;;;;;;;22.32;21.50;98451.09;4849239;29;20106;-82
2022/03/19 10:17:31;;;;;;;19.95;15.18;;;;;;;23.12;21.14;98435.47;4848539;29;20049;-82
2022/03/19 10:20:02;;;;;;;18.13;14.18;;;;;;;23.92;20.27;98428.56;4848982;29;20042;-82
2022/03/19 10:22:30;;;;;;;18.77;14.10;;;;;;;24.66;19.62;98438.09;4848842;29;20054;-81
2022/03/19 10:25:00;;;;;;;17.92;14.75;;;;;;;25.25;19.13;98432.06;4848695;29;20101;-81
2022/03/19 10:27:33;;;;;;;19.38;15.48;;;;;;;25.82;18.42;98426.09;4847392;29;20110;-79
2022/03/19 10:30:07;;;;;;;;;;;;;;;26.52;18.32;98425.06;4847024;29;20055;-79
2022/03/19 10:32:35;;;;;;;18.95;15.07;;;;;;;26.64;18.32;98417.81;4846834;29;19976;-80
2022/03/19 10:35:02;;;;;;;19.88;15.88;;;;;;;26.69;17.53;98415.22;4847452;29;20051;-80
2022/03/19 10:37:36;;;;;;;19.95;15.88;;;;;;;26.85;17.11;98428.88;4846773;29;20490;-80
2022/03/19 10:40:05;;;;;;;18.48;15.10;;;;;;;27.04;17.29;98408.84;4847432;29;20142;-80
2022/03/19 10:42:38;;;;;;;18.33;14.88;;;;;;;27.17;16.63;98409.56;4847641;29;20031;-80
2022/03/19 10:45:11;;;;;;;18.85;15.40;;;;;;;27.22;16.78;98425.75;4847376;29;20544;-80
2022/03/19 10:47:40;;;;;;;20.08;14.48;;;;;;;27.28;16.88;98416.72;4846548;29;20045;-79
2022/03/19 10:50:09;;;;;;;17.55;15.63;;;;;;;27.45;16.49;98404.09;4846598;29;20054;-80
2022/03/19 10:52:37;;;;;;;16.45;14.05;;;;;;;27.58;16.92;98394.91;4847154;29;20054;-80
2022/03/19 10:55:07;;;;;;;15.52;13.60;;;;;;;27.72;16.10;98396.16;4847050;29;20054;-79
2022/03/19 10:57:36;;;;;;;16.20;14.00;;;;;;;27.59;16.15;98385.78;4846744;29;20126;-80
2022/03/19 11:00:05;;;;;;;18.15;14.57;;;;;;;27.47;15.96;98382.44;4846223;29;20051;-80
2022/03/19 11:02:39;;;;;;;16.02;14.07;;;;;;;27.43;16.46;98371.38;4847105;29;20054;-80
2022/03/19 11:05:10;;;;;;;18.00;15.02;;;;;;;25.88;17.25;98363.69;4846974;29;20061;-80
2022/03/19 11:07:42;;;;;;;14.70;13.13;;;;;;;24.20;19.26;98343.50;4846508;29;20122;-81
2022/03/19 11:10:11;;;;;;;18.15;14.30;;;;;;;22.60;21.05;98347.84;4847263;29;20038;-80
2022/03/19 11:12:42;;;;;;;18.80;15.40;;;;;;;20.99;22.38;98338.06;4847566;29;20054;-79
2022/03/19 11:15:11;;;;;;;17.85;14.27;;;;;;;19.63;24.21;98339.00;4847708;29;20060;-79
2022/03/19 11:17:41;;;;;;;20.05;15.80;;;;;;;18.99;24.96;98333.97;4847262;29;20053;-78
2022/03/19 11:20:13;;;;;;;20.45;16.05;;;;;;;18.39;25.93;98328.97;4847286;29;20050;-79
2022/03/19 11:22:43;;;;;;;19.38;14.63;;;;;;;19.13;24.73;98335.66;4848126;29;20066;-79
2022/03/19 11:25:17;;;;;;;20.25;13.70;;;;;;;19.56;24.71;98314.31;4847682;29;20114;-79
2022/03/19 11:27:48;;;;;;;19.02;14.80;;;;;;;20.55;23.72;98310.28;4847347;29;20069;-79
2022/03/19 11:30:18;;;;;;;17.75;13.48;;;;;;;21.23;22.37;98314.53;4847658;29;20122;-80
2022/03/19 11:33:05;;;;;;;16.70;13.52;;;;;;;21.55;23.12;98318.16;4847471;29;20070;-79
2022/03/19 11:35:34;;;;;;;19.23;12.45;;;;;;;22.36;21.93;98300.78;4847706;29;20082;-80
2022/03/19 11:38:04;;;;;;;17.48;13.20;;;;;;;21.77;22.27;98297.41;4846912;29;20058;-80
2022/03/19 11:40:35;;;;;;;16.83;12.30;;;;;;;21.11;22.92;98296.59;4847633;29;20038;-80
2022/03/19 11:43:28;;;;;;;19.10;13.98;;;;;;;22.11;21.91;98284.78;4847275;29;20110;-80
2022/03/19 11:45:59;;;;;;;15.20;11.70;;;;;;;23.18;21.54;98282.06;4846718;29;20046;-80
2022/03/19 11:48:43;;;;;;;16.20;11.20;;;;;;;24.40;19.48;98287.22;4847063;29;20153;-79
2022/03/19 11:51:19;;;;;;;13.88;10.25;;;;;;;23.20;18.73;98290.66;4846752;29;20048;-79
2022/03/19 11:53:54;;;;;;;14.15;10.25;;;;;;;22.15;19.87;98276.16;4846904;29;20048;-80
2022/03/19 11:56:24;;;;;;;14.07;9.57;;;;;;;23.20;19.63;98278.13;4846725;29;20043;-80
2022/03/19 11:58:52;;;;;;;12.63;9.75;;;;;;;24.42;19.00;98268.31;4846563;29;20048;-80
2022/03/19 12:01:46;;;;;;;10.15;8.55;;;;;;;23.75;18.66;98268.47;4846714;29;20064;-80
2022/03/19 12:04:17;;;;;;;10.40;8.18;;;;;;;22.41;19.40;98269.03;4847122;29;20101;-79
2022/03/19 12:06:53;;;;;;;13.35;8.48;;;;;;;21.23;19.38;98267.59;4846203;29;20054;-79
2022/03/19 12:09:31;;;;;;;9.73;7.80;;;;;;;21.37;19.49;98266.50;4846948;29;20047;-79
2022/03/19 12:12:24;;;;;;;9.02;8.02;;;;;;;20.11;19.49;98250.75;4847743;29;20073;-79
2022/03/19 12:14:52;;;;;;;11.40;8.13;;;;;;;18.85;20.81;98248.44;4847123;29;20090;-80
2022/03/19 12:17:21;;;;;;;11.88;7.95;;;;;;;18.09;21.49;98239.31;4846428;29;20073;-80
2022/03/19 12:19:54;;;;;;;10.55;7.60;;;;;;;17.74;21.86;98234.88;4848101;29;20094;-79
2022/03/19 12:22:35;;;;;;;10.55;7.28;;;;;;;17.29;23.39;98222.63;4847880;29;20062;-80